Aviation Digital Data Service (ADDS)

Output produced by METARs form (0504 UTC 21 September 2017)
found at http://www.aviationweather.gov/adds/metars/
 
FQBR 210400Z 17007KT 090V200 9999 SCT016 SCT070 23/21 Q1021
TAF FQBR 202200Z 2100/2206 19010KT 9999 SCT016 BKN030 
     BECMG 2106/2108 10010KT BKN020 
     BECMG 2118/2120 VRB03KT 
     BECMG 2200/2202 10008KT TX28/2112Z TN21/2102Z
       
FQCH 210500Z 18006KT 9999 BKN015 18/18 Q1027
TAF FQCH 202200Z 2100/2200 12007KT 9999 BKN020 
     BECMG 2106/2108 19008KT BKN020 
     BECMG 2112/2114 09010KT 
     BECMG 2118/2120 03008KT TX26/2112Z TN15/2102Z
       
TAF FQIN 202200Z 2100/2200 21008KT 9999 FEW020 
     BECMG 2112/2114 10012KT 
     BECMG 2118/2120 04008KT TX27/2112Z TN16/2102Z
       
TAF FQLC 202200Z 2100/2200 13005KT 9999 FEW020 
     BECMG 2106/2108 06008KT 
     BECMG 2112/2114 25010KT 
     BECMG 2118/2120 10010KT TX27/2112Z TN13/2102Z
       
FQMA 210500Z 24003KT 8000 DZ SCT006 OVC020 20/19 Q1025 NOSIG
TAF FQMA 202200Z 2100/2206 17010KT 9999 FEW025 
     BECMG 2112/2114 05012KT 
     BECMG 2118/2120 35008KT 
     BECMG 2200/2202 03010G20KT TX28/2112Z TN20/2102Z
       
TAF FQNC 202200Z 2100/2200 23008KT 9999 FEW025 
     BECMG 2106/2108 17007KT BKN020 
     BECMG 2112/2114 11010KT 
     BECMG 2118/2120 22010KT TX32/2112Z TN19/2110Z
       
FQNP 210500Z 20008KT 9999 BKN020 22/19 Q1021
TAF FQNP 202200Z 2100/2206 10006KT CAVOK 
     BECMG 2106/2108 9999 SCT020 
     BECMG 2118/2120 19006KT 
     BECMG 2200/2202 VRB03KT TX30/2112Z TN19/2102Z
       
FQPB 210500Z 23006KT 9999 FEW020 23/21 Q1019
TAF FQPB 202200Z 2100/2200 12004KT 9999 FEW020 
     BECMG 2106/2108 18007KT 
     BECMG 2112/2114 08010KT 
     BECMG 2118/2120 16010KT TX29/2102Z TN21/2102Z
       
FQQL 210400Z 00000KT 9999 BKN020 24/21 Q1020
TAF FQQL 202200Z 2100/2200 21008KT 9999 FEW020 
     BECMG 2112/2114 14010KT 
     BECMG 2118/2120 14010KT TX28/2112Z TN21/2102Z
       
FQTT 210430Z 12010KT 090V150 6000 NSC 25/19 Q1022 RMK HZ
TAF FQTT 202200Z 2100/2200 09008KT 9999 FEW025 
     BECMG 2106/2108 VRB03KT 
     BECMG 2112/2114 05010KT 
     BECMG 2118/2120 VRB03KT TX30/2112Z TN19/2102Z
       
TAF FQVL 202200Z 2100/2200 21006KT 9999 SCT020 
     BECMG 2112/2114 12010KT 
     BECMG 2118/2120 06008KT TX27/2112Z TN19/2102Z